Gemmell, Minnesota
Current Conditions -  °F | °C
As of 10:12 AM on Thursday 29 Jan 2015 (Local Time) from KVWU Reporting Station
Light Snow Light Snow  
Wind Chill: -5°   Ceiling: 1500
Heat Index: 10°   Visibility: 3mi
Dew Point:   Wind: 13mph
Humidity: 85%   Direction: 300°WNW
Pressure: 30.32"   Gusts: 17mph
Location:  47.9892°N, 94.2138°W
Report Text: KVWU 291612Z AUTO 30011G15KT 3SM -SN OVC015 M12/M14 A3032 RMK AO2
Loading
Personal Weather Stations






























Interactive Weather Map New forecast layout! Learn more

10-Day Weather Forecast

Advertisements
Track Severe Weather on mobile